Aeroporto :
LOGIN :

Iscrizione | Disclaimer

   EN    FR    IT 

 










Sommario :    VFR   VFR Marginale   IFR   IFR Intensivo   IFR Molto Intensivo
Visibilità : 
Base nubi : 
>= 8 km
>= 3000ft
5 / 8 km
1000 / 3000 ft
1500m / 5 km
500 / 1000 ft
800 / 1500m
200 / 500 ft
< 800m
< 200 ft
Simboli :   Temporali  Nebbia  Neve Forte  Precipitazioni Forti  Vento > 20 kt
SIGMETs :   Varie  Temporali  Ghiacco  Turbolenza  Onda orograficha  Ceneri Vulcaniche






- Altitudine del aeroporto : 49 ft
- Codice IATA : GLZ


EHGR - Gilze-Rijen Airbase

ULTIMO METAR :
  • 230104Z AUTO 20004KT 160V230 9999 BKN022 BKN065 18/17 Q1016 WHT

METARs OBSOLETI :
  • 230055Z AUTO 19004KT 150V220 9999 FEW024 18/16 Q1016 BLU
  • 230025Z AUTO 19005KT 160V240 9999 FEW023 BKN072 BKN079 19/17 Q1016 BLU
  • 222359Z AUTO 20005KT 170V240 9999 BKN022 BKN054 OVC060 19/17 Q1016 WHT
  • 222325Z AUTO 19004KT 160V240 9999 FEW038 BKN043 BKN079 19/17 Q1016 BLU
  • 222255Z AUTO 21003KT 200V260 9999 BKN038 OVC045 19/17 Q1017 BLU
  • 222225Z AUTO 22003KT 190V260 9999 BKN034 OVC038 19/17 Q1016 BLU
  • 222155Z AUTO 22004KT 190V270 9999 BKN040 OVC044 20/17 Q1016 BLU
  • 222125Z AUTO 24004KT 9999 FEW037 BKN045 BKN056 20/17 Q1017 BLU
  • 222055Z AUTO 25004KT 9999 OVC038 20/16 Q1017 BLU
  • 222025Z AUTO VRB02KT 9999 SCT038 SCT049 OVC074 21/16 Q1017 BLU

TAF TAF EHGR
Valido dal 22 a 17 ore il 23 a 05 ore UTC


221625Z 2217/2305 25009KT 9999 SCT035
BECMG 2301/2304 SCT015 BKN018
PROB30
TEMPO 2302/2305 4500 -RADZ FEW008 SCT010 BKN015



MetMap, La meteo Aeronautica in un colpo d'occhio ! - Copyright ORBIFLY Dicembre 2007 - Disclaimer

ORBIFLY MET'MAP TEAM :

Programmazione e sviluppo : Alexandra Zaïnal
Concezione : Baudouin d'Aumeries
Supporto tecnico e logistico : Manuel Goepfert
Aiuto : Marc-Olivier Méhu
Aiuto per la traduzione : Arnaldo La Scala




FONTI E CREDITI :

   NOAA